sensor_id;sensor_type;location;lat;lon;timestamp;P1;durP1;ratioP1;P2;durP2;ratioP2
11004;SDS011;5555;59.622;16.556;2022-08-23T00:01:47;1.27;;;1.07;;
11004;SDS011;5555;59.622;16.556;2022-08-23T00:04:16;2.20;;;1.50;;
11004;SDS011;5555;59.622;16.556;2022-08-23T00:06:44;1.10;;;1.00;;
11004;SDS011;5555;59.622;16.556;2022-08-23T00:09:11;1.30;;;1.20;;
11004;SDS011;5555;59.622;16.556;2022-08-23T00:11:48;1.63;;;0.90;;
11004;SDS011;5555;59.622;16.556;2022-08-23T00:14:29;1.70;;;1.17;;
11004;SDS011;5555;59.622;16.556;2022-08-23T00:16:57;2.70;;;1.30;;
11004;SDS011;5555;59.622;16.556;2022-08-23T00:19:23;1.30;;;1.10;;
11004;SDS011;5555;59.622;16.556;2022-08-23T00:21:50;2.00;;;1.27;;
11004;SDS011;5555;59.622;16.556;2022-08-23T00:24:17;2.83;;;1.20;;
11004;SDS011;5555;59.622;16.556;2022-08-23T00:26:53;1.20;;;1.00;;
11004;SDS011;5555;59.622;16.556;2022-08-23T00:29:20;1.57;;;1.40;;
11004;SDS011;5555;59.622;16.556;2022-08-23T00:31:47;2.57;;;1.20;;
11004;SDS011;5555;59.622;16.556;2022-08-23T00:34:14;2.57;;;1.20;;
11004;SDS011;5555;59.622;16.556;2022-08-23T00:36:40;2.37;;;1.10;;
11004;SDS011;5555;59.622;16.556;2022-08-23T00:39:06;1.63;;;1.10;;
11004;SDS011;5555;59.622;16.556;2022-08-23T00:41:32;2.20;;;1.27;;
11004;SDS011;5555;59.622;16.556;2022-08-23T00:43:59;2.30;;;1.20;;
11004;SDS011;5555;59.622;16.556;2022-08-23T00:46:55;3.13;;;1.37;;
11004;SDS011;5555;59.622;16.556;2022-08-23T00:49:40;4.43;;;1.43;;
11004;SDS011;5555;59.622;16.556;2022-08-23T00:52:33;3.43;;;1.37;;
11004;SDS011;5555;59.622;16.556;2022-08-23T00:55:02;3.10;;;1.50;;
11004;SDS011;5555;59.622;16.556;2022-08-23T00:57:29;1.63;;;1.03;;
11004;SDS011;5555;59.622;16.556;2022-08-23T00:59:56;2.17;;;1.20;;
11004;SDS011;5555;59.622;16.556;2022-08-23T01:02:22;2.47;;;1.30;;
11004;SDS011;5555;59.622;16.556;2022-08-23T01:04:50;1.57;;;1.37;;
11004;SDS011;5555;59.622;16.556;2022-08-23T01:07:24;3.30;;;1.40;;
11004;SDS011;5555;59.622;16.556;2022-08-23T01:10:53;2.70;;;1.30;;
11004;SDS011;5555;59.622;16.556;2022-08-23T01:13:12;1.50;;;1.20;;
11004;SDS011;5555;59.622;16.556;2022-08-23T01:15:45;2.73;;;1.30;;
11004;SDS011;5555;59.622;16.556;2022-08-23T01:18:16;2.93;;;1.40;;
11004;SDS011;5555;59.622;16.556;2022-08-23T01:21:18;2.03;;;1.30;;
11004;SDS011;5555;59.622;16.556;2022-08-23T01:23:42;1.73;;;1.03;;
11004;SDS011;5555;59.622;16.556;2022-08-23T01:26:16;2.00;;;1.20;;
11004;SDS011;5555;59.622;16.556;2022-08-23T01:28:43;2.97;;;1.20;;
11004;SDS011;5555;59.622;16.556;2022-08-23T01:31:09;1.43;;;1.20;;
11004;SDS011;5555;59.622;16.556;2022-08-23T01:33:36;2.40;;;1.20;;
11004;SDS011;5555;59.622;16.556;2022-08-23T01:36:04;2.93;;;1.23;;
11004;SDS011;5555;59.622;16.556;2022-08-23T01:38:31;2.03;;;1.40;;
11004;SDS011;5555;59.622;16.556;2022-08-23T01:40:56;1.40;;;1.20;;
11004;SDS011;5555;59.622;16.556;2022-08-23T01:43:23;1.43;;;1.20;;
11004;SDS011;5555;59.622;16.556;2022-08-23T01:45:49;3.33;;;1.27;;
11004;SDS011;5555;59.622;16.556;2022-08-23T01:48:16;2.27;;;1.30;;
11004;SDS011;5555;59.622;16.556;2022-08-23T01:50:43;1.67;;;1.20;;
11004;SDS011;5555;59.622;16.556;2022-08-23T01:53:10;1.80;;;1.33;;
11004;SDS011;5555;59.622;16.556;2022-08-23T01:55:36;1.17;;;1.03;;
11004;SDS011;5555;59.622;16.556;2022-08-23T01:58:04;1.20;;;1.10;;
11004;SDS011;5555;59.622;16.556;2022-08-23T02:00:31;2.10;;;1.30;;
11004;SDS011;5555;59.622;16.556;2022-08-23T02:03:00;1.77;;;1.23;;
11004;SDS011;5555;59.622;16.556;2022-08-23T02:05:27;2.57;;;1.30;;
11004;SDS011;5555;59.622;16.556;2022-08-23T02:07:53;2.83;;;1.50;;
11004;SDS011;5555;59.622;16.556;2022-08-23T02:10:19;1.97;;;1.40;;
11004;SDS011;5555;59.622;16.556;2022-08-23T02:12:45;2.43;;;1.40;;
11004;SDS011;5555;59.622;16.556;2022-08-23T02:15:12;2.60;;;1.40;;
11004;SDS011;5555;59.622;16.556;2022-08-23T02:17:38;2.70;;;1.30;;
11004;SDS011;5555;59.622;16.556;2022-08-23T02:20:04;2.37;;;1.33;;
11004;SDS011;5555;59.622;16.556;2022-08-23T02:22:31;5.67;;;1.40;;
11004;SDS011;5555;59.622;16.556;2022-08-23T02:24:57;2.77;;;1.43;;
11004;SDS011;5555;59.622;16.556;2022-08-23T02:27:23;1.97;;;1.47;;
11004;SDS011;5555;59.622;16.556;2022-08-23T02:29:49;2.90;;;1.50;;
11004;SDS011;5555;59.622;16.556;2022-08-23T02:32:15;2.07;;;1.30;;
11004;SDS011;5555;59.622;16.556;2022-08-23T02:34:43;2.87;;;1.13;;
11004;SDS011;5555;59.622;16.556;2022-08-23T02:37:10;2.70;;;1.10;;
11004;SDS011;5555;59.622;16.556;2022-08-23T02:39:38;2.20;;;1.10;;
11004;SDS011;5555;59.622;16.556;2022-08-23T02:42:04;1.10;;;1.00;;
11004;SDS011;5555;59.622;16.556;2022-08-23T02:44:30;1.37;;;1.20;;
11004;SDS011;5555;59.622;16.556;2022-08-23T02:46:59;1.73;;;1.53;;
11004;SDS011;5555;59.622;16.556;2022-08-23T02:49:25;1.23;;;1.13;;
11004;SDS011;5555;59.622;16.556;2022-08-23T02:51:51;2.07;;;1.30;;
11004;SDS011;5555;59.622;16.556;2022-08-23T02:54:17;3.37;;;1.20;;
11004;SDS011;5555;59.622;16.556;2022-08-23T02:56:43;3.33;;;1.30;;
11004;SDS011;5555;59.622;16.556;2022-08-23T02:59:08;1.47;;;0.97;;
11004;SDS011;5555;59.622;16.556;2022-08-23T03:01:35;3.03;;;1.40;;
11004;SDS011;5555;59.622;16.556;2022-08-23T03:04:04;2.60;;;1.40;;
11004;SDS011;5555;59.622;16.556;2022-08-23T03:06:32;1.60;;;1.30;;
11004;SDS011;5555;59.622;16.556;2022-08-23T03:08:58;1.77;;;1.10;;
11004;SDS011;5555;59.622;16.556;2022-08-23T03:11:25;3.43;;;1.10;;
11004;SDS011;5555;59.622;16.556;2022-08-23T03:13:51;3.10;;;1.13;;
11004;SDS011;5555;59.622;16.556;2022-08-23T03:16:18;1.33;;;1.10;;
11004;SDS011;5555;59.622;16.556;2022-08-23T03:18:44;3.57;;;1.57;;
11004;SDS011;5555;59.622;16.556;2022-08-23T03:21:12;2.40;;;1.27;;
11004;SDS011;5555;59.622;16.556;2022-08-23T03:23:38;1.60;;;1.50;;
11004;SDS011;5555;59.622;16.556;2022-08-23T03:26:05;4.63;;;1.70;;
11004;SDS011;5555;59.622;16.556;2022-08-23T03:28:33;1.23;;;1.13;;
11004;SDS011;5555;59.622;16.556;2022-08-23T03:31:00;2.00;;;1.50;;
11004;SDS011;5555;59.622;16.556;2022-08-23T03:33:26;3.57;;;1.17;;
11004;SDS011;5555;59.622;16.556;2022-08-23T03:35:56;3.73;;;1.40;;
11004;SDS011;5555;59.622;16.556;2022-08-23T03:38:23;2.10;;;1.50;;
11004;SDS011;5555;59.622;16.556;2022-08-23T03:40:49;2.40;;;1.13;;
11004;SDS011;5555;59.622;16.556;2022-08-23T03:43:16;4.83;;;1.23;;
11004;SDS011;5555;59.622;16.556;2022-08-23T03:45:42;2.90;;;1.50;;
11004;SDS011;5555;59.622;16.556;2022-08-23T03:48:08;2.13;;;1.40;;
11004;SDS011;5555;59.622;16.556;2022-08-23T03:50:34;3.73;;;1.30;;
11004;SDS011;5555;59.622;16.556;2022-08-23T03:53:00;1.60;;;1.50;;
11004;SDS011;5555;59.622;16.556;2022-08-23T03:55:26;2.20;;;1.63;;
11004;SDS011;5555;59.622;16.556;2022-08-23T03:57:51;3.57;;;1.60;;
11004;SDS011;5555;59.622;16.556;2022-08-23T04:00:18;3.50;;;1.87;;
11004;SDS011;5555;59.622;16.556;2022-08-23T04:02:44;2.03;;;1.50;;
11004;SDS011;5555;59.622;16.556;2022-08-23T04:05:10;1.77;;;1.40;;
11004;SDS011;5555;59.622;16.556;2022-08-23T04:07:36;1.67;;;1.47;;
11004;SDS011;5555;59.622;16.556;2022-08-23T04:10:04;4.10;;;1.50;;
11004;SDS011;5555;59.622;16.556;2022-08-23T04:12:31;2.50;;;1.60;;
11004;SDS011;5555;59.622;16.556;2022-08-23T04:14:57;2.77;;;1.60;;
11004;SDS011;5555;59.622;16.556;2022-08-23T04:17:23;3.33;;;1.77;;
11004;SDS011;5555;59.622;16.556;2022-08-23T04:19:49;3.23;;;1.50;;
11004;SDS011;5555;59.622;16.556;2022-08-23T04:22:16;1.83;;;1.40;;
11004;SDS011;5555;59.622;16.556;2022-08-23T04:24:43;3.73;;;1.87;;
11004;SDS011;5555;59.622;16.556;2022-08-23T04:27:10;4.90;;;1.60;;
11004;SDS011;5555;59.622;16.556;2022-08-23T04:29:37;2.47;;;1.40;;
11004;SDS011;5555;59.622;16.556;2022-08-23T04:32:04;2.07;;;1.53;;
11004;SDS011;5555;59.622;16.556;2022-08-23T04:34:31;3.63;;;1.60;;
11004;SDS011;5555;59.622;16.556;2022-08-23T04:36:58;2.53;;;1.57;;
11004;SDS011;5555;59.622;16.556;2022-08-23T04:39:24;2.10;;;1.90;;
11004;SDS011;5555;59.622;16.556;2022-08-23T04:41:51;2.27;;;1.80;;
11004;SDS011;5555;59.622;16.556;2022-08-23T04:44:35;2.90;;;1.70;;
11004;SDS011;5555;59.622;16.556;2022-08-23T04:47:01;1.97;;;1.70;;
11004;SDS011;5555;59.622;16.556;2022-08-23T04:49:27;3.43;;;1.60;;
11004;SDS011;5555;59.622;16.556;2022-08-23T04:51:52;2.60;;;1.87;;
11004;SDS011;5555;59.622;16.556;2022-08-23T04:54:18;2.43;;;1.73;;
11004;SDS011;5555;59.622;16.556;2022-08-23T04:56:44;3.70;;;2.13;;
11004;SDS011;5555;59.622;16.556;2022-08-23T04:59:10;4.53;;;1.73;;
11004;SDS011;5555;59.622;16.556;2022-08-23T05:01:36;5.27;;;2.03;;
11004;SDS011;5555;59.622;16.556;2022-08-23T05:04:02;3.40;;;1.87;;
11004;SDS011;5555;59.622;16.556;2022-08-23T05:06:28;4.73;;;1.77;;
11004;SDS011;5555;59.622;16.556;2022-08-23T05:08:55;2.80;;;1.60;;
11004;SDS011;5555;59.622;16.556;2022-08-23T05:11:22;3.40;;;1.83;;
11004;SDS011;5555;59.622;16.556;2022-08-23T05:13:48;4.57;;;1.80;;
11004;SDS011;5555;59.622;16.556;2022-08-23T05:16:14;2.77;;;1.90;;
11004;SDS011;5555;59.622;16.556;2022-08-23T05:18:40;3.00;;;2.47;;
11004;SDS011;5555;59.622;16.556;2022-08-23T05:21:05;3.17;;;1.97;;
11004;SDS011;5555;59.622;16.556;2022-08-23T05:23:32;3.23;;;2.27;;
11004;SDS011;5555;59.622;16.556;2022-08-23T05:25:58;4.10;;;2.17;;
11004;SDS011;5555;59.622;16.556;2022-08-23T05:28:25;4.73;;;2.40;;
11004;SDS011;5555;59.622;16.556;2022-08-23T05:33:24;6.40;;;2.10;;
11004;SDS011;5555;59.622;16.556;2022-08-23T05:35:51;4.00;;;2.17;;
11004;SDS011;5555;59.622;16.556;2022-08-23T05:38:17;4.30;;;2.00;;
11004;SDS011;5555;59.622;16.556;2022-08-23T05:40:43;2.77;;;2.17;;
11004;SDS011;5555;59.622;16.556;2022-08-23T05:43:12;2.80;;;1.80;;
11004;SDS011;5555;59.622;16.556;2022-08-23T05:45:38;2.60;;;1.80;;
11004;SDS011;5555;59.622;16.556;2022-08-23T05:48:04;4.47;;;2.00;;
11004;SDS011;5555;59.622;16.556;2022-08-23T05:50:29;3.53;;;1.80;;
11004;SDS011;5555;59.622;16.556;2022-08-23T05:52:55;7.20;;;1.67;;
11004;SDS011;5555;59.622;16.556;2022-08-23T05:55:21;6.20;;;1.73;;
11004;SDS011;5555;59.622;16.556;2022-08-23T05:57:46;4.67;;;1.77;;
11004;SDS011;5555;59.622;16.556;2022-08-23T06:00:13;7.60;;;1.70;;
11004;SDS011;5555;59.622;16.556;2022-08-23T06:02:39;2.27;;;1.60;;
11004;SDS011;5555;59.622;16.556;2022-08-23T06:05:06;4.60;;;1.70;;
11004;SDS011;5555;59.622;16.556;2022-08-23T06:07:33;4.37;;;1.60;;
11004;SDS011;5555;59.622;16.556;2022-08-23T06:09:59;3.20;;;1.70;;
11004;SDS011;5555;59.622;16.556;2022-08-23T06:12:25;5.70;;;1.80;;
11004;SDS011;5555;59.622;16.556;2022-08-23T06:14:51;4.33;;;1.80;;
11004;SDS011;5555;59.622;16.556;2022-08-23T06:17:17;4.43;;;1.60;;
11004;SDS011;5555;59.622;16.556;2022-08-23T06:19:42;3.27;;;1.70;;
11004;SDS011;5555;59.622;16.556;2022-08-23T06:22:08;4.73;;;1.77;;
11004;SDS011;5555;59.622;16.556;2022-08-23T06:24:34;7.27;;;1.87;;
11004;SDS011;5555;59.622;16.556;2022-08-23T06:27:00;9.53;;;1.93;;
11004;SDS011;5555;59.622;16.556;2022-08-23T06:29:25;13.97;;;2.20;;
11004;SDS011;5555;59.622;16.556;2022-08-23T06:31:52;8.77;;;2.10;;
11004;SDS011;5555;59.622;16.556;2022-08-23T06:36:50;6.67;;;2.10;;
11004;SDS011;5555;59.622;16.556;2022-08-23T06:39:17;10.43;;;2.20;;
11004;SDS011;5555;59.622;16.556;2022-08-23T06:41:44;9.33;;;2.30;;
11004;SDS011;5555;59.622;16.556;2022-08-23T06:44:12;10.77;;;2.33;;
11004;SDS011;5555;59.622;16.556;2022-08-23T06:46:39;13.33;;;3.03;;
11004;SDS011;5555;59.622;16.556;2022-08-23T06:49:06;13.20;;;2.57;;
11004;SDS011;5555;59.622;16.556;2022-08-23T06:51:33;11.33;;;2.33;;
11004;SDS011;5555;59.622;16.556;2022-08-23T06:54:02;18.63;;;2.90;;
11004;SDS011;5555;59.622;16.556;2022-08-23T06:56:31;14.93;;;2.90;;
11004;SDS011;5555;59.622;16.556;2022-08-23T06:58:57;14.03;;;2.60;;
11004;SDS011;5555;59.622;16.556;2022-08-23T07:01:31;16.37;;;3.23;;
11004;SDS011;5555;59.622;16.556;2022-08-23T07:04:01;16.20;;;2.53;;
11004;SDS011;5555;59.622;16.556;2022-08-23T07:06:29;14.87;;;2.33;;
11004;SDS011;5555;59.622;16.556;2022-08-23T07:08:55;11.60;;;2.20;;
11004;SDS011;5555;59.622;16.556;2022-08-23T07:11:21;13.67;;;2.93;;
11004;SDS011;5555;59.622;16.556;2022-08-23T07:13:47;10.30;;;2.13;;
11004;SDS011;5555;59.622;16.556;2022-08-23T07:16:13;10.33;;;2.00;;
11004;SDS011;5555;59.622;16.556;2022-08-23T07:18:42;18.10;;;3.03;;
11004;SDS011;5555;59.622;16.556;2022-08-23T07:21:09;16.30;;;2.57;;
11004;SDS011;5555;59.622;16.556;2022-08-23T07:23:34;16.63;;;2.40;;
11004;SDS011;5555;59.622;16.556;2022-08-23T07:26:05;11.70;;;2.27;;
11004;SDS011;5555;59.622;16.556;2022-08-23T07:28:33;10.93;;;2.40;;
11004;SDS011;5555;59.622;16.556;2022-08-23T07:31:10;8.83;;;1.50;;
11004;SDS011;5555;59.622;16.556;2022-08-23T07:33:38;8.63;;;1.70;;
11004;SDS011;5555;59.622;16.556;2022-08-23T07:36:05;8.03;;;1.30;;
11004;SDS011;5555;59.622;16.556;2022-08-23T07:38:32;6.00;;;1.23;;
11004;SDS011;5555;59.622;16.556;2022-08-23T07:40:59;4.30;;;1.30;;
11004;SDS011;5555;59.622;16.556;2022-08-23T07:43:27;3.57;;;1.27;;
11004;SDS011;5555;59.622;16.556;2022-08-23T07:45:53;4.80;;;1.37;;
11004;SDS011;5555;59.622;16.556;2022-08-23T07:48:19;3.73;;;1.30;;
11004;SDS011;5555;59.622;16.556;2022-08-23T07:50:52;3.60;;;0.80;;
11004;SDS011;5555;59.622;16.556;2022-08-23T07:53:19;4.07;;;1.00;;
11004;SDS011;5555;59.622;16.556;2022-08-23T07:55:45;2.03;;;0.80;;
11004;SDS011;5555;59.622;16.556;2022-08-23T07:58:11;3.63;;;1.07;;
11004;SDS011;5555;59.622;16.556;2022-08-23T08:00:37;2.53;;;0.90;;
11004;SDS011;5555;59.622;16.556;2022-08-23T08:03:03;2.10;;;0.90;;
11004;SDS011;5555;59.622;16.556;2022-08-23T08:05:32;3.83;;;1.07;;
11004;SDS011;5555;59.622;16.556;2022-08-23T08:07:58;6.50;;;1.27;;
11004;SDS011;5555;59.622;16.556;2022-08-23T08:10:24;3.27;;;0.87;;
11004;SDS011;5555;59.622;16.556;2022-08-23T08:12:50;2.07;;;1.00;;
11004;SDS011;5555;59.622;16.556;2022-08-23T08:15:16;2.47;;;0.93;;
11004;SDS011;5555;59.622;16.556;2022-08-23T08:17:42;1.50;;;0.63;;
11004;SDS011;5555;59.622;16.556;2022-08-23T08:20:10;2.43;;;0.97;;
11004;SDS011;5555;59.622;16.556;2022-08-23T08:22:36;3.77;;;1.03;;
11004;SDS011;5555;59.622;16.556;2022-08-23T08:25:02;2.47;;;0.87;;
11004;SDS011;5555;59.622;16.556;2022-08-23T08:27:27;1.90;;;0.90;;
11004;SDS011;5555;59.622;16.556;2022-08-23T08:29:53;4.03;;;1.30;;
11004;SDS011;5555;59.622;16.556;2022-08-23T08:32:19;2.63;;;1.07;;
11004;SDS011;5555;59.622;16.556;2022-08-23T08:34:45;2.77;;;0.90;;
11004;SDS011;5555;59.622;16.556;2022-08-23T08:37:10;2.03;;;0.80;;
11004;SDS011;5555;59.622;16.556;2022-08-23T08:39:36;3.13;;;0.80;;
11004;SDS011;5555;59.622;16.556;2022-08-23T08:44:51;2.83;;;1.10;;
11004;SDS011;5555;59.622;16.556;2022-08-23T08:53:02;3.43;;;1.00;;
11004;SDS011;5555;59.622;16.556;2022-08-23T08:55:43;2.90;;;0.97;;
11004;SDS011;5555;59.622;16.556;2022-08-23T08:58:24;1.20;;;0.50;;
11004;SDS011;5555;59.622;16.556;2022-08-23T09:01:03;2.03;;;0.70;;
11004;SDS011;5555;59.622;16.556;2022-08-23T09:03:31;3.10;;;0.87;;
11004;SDS011;5555;59.622;16.556;2022-08-23T09:06:00;2.63;;;0.60;;
11004;SDS011;5555;59.622;16.556;2022-08-23T09:11:37;2.60;;;0.80;;
11004;SDS011;5555;59.622;16.556;2022-08-23T09:16:51;1.40;;;0.53;;
11004;SDS011;5555;59.622;16.556;2022-08-23T09:19:28;1.27;;;0.63;;
11004;SDS011;5555;59.622;16.556;2022-08-23T09:22:02;8.80;;;4.00;;
11004;SDS011;5555;59.622;16.556;2022-08-23T09:24:37;1.63;;;1.00;;
11004;SDS011;5555;59.622;16.556;2022-08-23T09:27:04;1.53;;;0.60;;
11004;SDS011;5555;59.622;16.556;2022-08-23T09:29:33;2.13;;;0.60;;
11004;SDS011;5555;59.622;16.556;2022-08-23T09:32:01;2.70;;;0.80;;
11004;SDS011;5555;59.622;16.556;2022-08-23T09:39:41;1.00;;;0.47;;
11004;SDS011;5555;59.622;16.556;2022-08-23T09:42:31;1.53;;;0.50;;
11004;SDS011;5555;59.622;16.556;2022-08-23T09:45:51;2.80;;;0.60;;
11004;SDS011;5555;59.622;16.556;2022-08-23T09:47:52;3.67;;;0.80;;
11004;SDS011;5555;59.622;16.556;2022-08-23T09:50:28;1.40;;;0.60;;
11004;SDS011;5555;59.622;16.556;2022-08-23T09:53:31;2.77;;;0.70;;
11004;SDS011;5555;59.622;16.556;2022-08-23T09:55:53;2.03;;;0.60;;
11004;SDS011;5555;59.622;16.556;2022-08-23T09:58:41;1.47;;;0.43;;
11004;SDS011;5555;59.622;16.556;2022-08-23T10:04:10;3.27;;;0.83;;
11004;SDS011;5555;59.622;16.556;2022-08-23T10:06:39;1.63;;;0.50;;
11004;SDS011;5555;59.622;16.556;2022-08-23T10:09:07;2.17;;;0.80;;
11004;SDS011;5555;59.622;16.556;2022-08-23T10:11:36;2.40;;;0.60;;
11004;SDS011;5555;59.622;16.556;2022-08-23T10:14:05;1.70;;;0.50;;
11004;SDS011;5555;59.622;16.556;2022-08-23T10:16:40;3.60;;;0.73;;
11004;SDS011;5555;59.622;16.556;2022-08-23T10:22:20;2.60;;;0.70;;
11004;SDS011;5555;59.622;16.556;2022-08-23T10:25:05;2.20;;;0.80;;
11004;SDS011;5555;59.622;16.556;2022-08-23T10:36:57;2.67;;;0.70;;
11004;SDS011;5555;59.622;16.556;2022-08-23T10:39:46;2.73;;;0.80;;
11004;SDS011;5555;59.622;16.556;2022-08-23T10:47:33;2.47;;;0.70;;
11004;SDS011;5555;59.622;16.556;2022-08-23T10:50:09;2.40;;;0.50;;
11004;SDS011;5555;59.622;16.556;2022-08-23T10:52:39;1.77;;;0.80;;
11004;SDS011;5555;59.622;16.556;2022-08-23T10:55:29;1.20;;;0.60;;
11004;SDS011;5555;59.622;16.556;2022-08-23T10:58:11;2.73;;;0.63;;
11004;SDS011;5555;59.622;16.556;2022-08-23T11:00:45;2.77;;;0.53;;
11004;SDS011;5555;59.622;16.556;2022-08-23T11:03:20;1.37;;;0.50;;
11004;SDS011;5555;59.622;16.556;2022-08-23T11:14:10;1.97;;;0.60;;
11004;SDS011;5555;59.622;16.556;2022-08-23T11:16:53;1.47;;;0.60;;
11004;SDS011;5555;59.622;16.556;2022-08-23T11:20:53;2.00;;;0.60;;
11004;SDS011;5555;59.622;16.556;2022-08-23T11:22:33;1.13;;;0.50;;
11004;SDS011;5555;59.622;16.556;2022-08-23T11:27:44;1.40;;;0.70;;
11004;SDS011;5555;59.622;16.556;2022-08-23T11:33:06;1.23;;;0.70;;
11004;SDS011;5555;59.622;16.556;2022-08-23T11:38:18;1.90;;;0.70;;
11004;SDS011;5555;59.622;16.556;2022-08-23T11:46:28;3.50;;;0.90;;
11004;SDS011;5555;59.622;16.556;2022-08-23T11:55:00;3.33;;;0.90;;
11004;SDS011;5555;59.622;16.556;2022-08-23T12:21:21;1.67;;;0.50;;
11004;SDS011;5555;59.622;16.556;2022-08-23T12:38:47;2.43;;;0.90;;
11004;SDS011;5555;59.622;16.556;2022-08-23T12:41:20;1.30;;;0.65;;
11004;SDS011;5555;59.622;16.556;2022-08-23T12:46:27;2.05;;;0.70;;
11004;SDS011;5555;59.622;16.556;2022-08-23T12:48:55;1.90;;;0.63;;
11004;SDS011;5555;59.622;16.556;2022-08-23T12:51:21;1.43;;;0.60;;
11004;SDS011;5555;59.622;16.556;2022-08-23T12:53:46;0.87;;;0.50;;
11004;SDS011;5555;59.622;16.556;2022-08-23T12:56:19;4.17;;;0.70;;
11004;SDS011;5555;59.622;16.556;2022-08-23T12:58:56;2.65;;;0.60;;
11004;SDS011;5555;59.622;16.556;2022-08-23T13:03:50;2.58;;;0.63;;
11004;SDS011;5555;59.622;16.556;2022-08-23T13:06:24;2.17;;;0.60;;
11004;SDS011;5555;59.622;16.556;2022-08-23T13:09:03;1.05;;;0.50;;
11004;SDS011;5555;59.622;16.556;2022-08-23T13:11:38;4.60;;;1.30;;
11004;SDS011;5555;59.622;16.556;2022-08-23T13:14:22;2.90;;;0.77;;
11004;SDS011;5555;59.622;16.556;2022-08-23T13:17:11;4.93;;;0.60;;
11004;SDS011;5555;59.622;16.556;2022-08-23T13:19:37;1.95;;;0.60;;
11004;SDS011;5555;59.622;16.556;2022-08-23T13:24:48;1.60;;;0.50;;
11004;SDS011;5555;59.622;16.556;2022-08-23T13:38:00;3.77;;;0.87;;
11004;SDS011;5555;59.622;16.556;2022-08-23T13:40:41;3.63;;;0.80;;
11004;SDS011;5555;59.622;16.556;2022-08-23T13:43:20;2.37;;;0.63;;
11004;SDS011;5555;59.622;16.556;2022-08-23T13:45:54;1.70;;;0.90;;
11004;SDS011;5555;59.622;16.556;2022-08-23T13:48:32;3.77;;;0.90;;
11004;SDS011;5555;59.622;16.556;2022-08-23T13:51:18;1.63;;;0.63;;
11004;SDS011;5555;59.622;16.556;2022-08-23T13:53:48;2.80;;;0.80;;
11004;SDS011;5555;59.622;16.556;2022-08-23T13:56:14;2.90;;;0.97;;
11004;SDS011;5555;59.622;16.556;2022-08-23T13:58:40;1.87;;;0.50;;
11004;SDS011;5555;59.622;16.556;2022-08-23T14:01:10;2.73;;;0.70;;
11004;SDS011;5555;59.622;16.556;2022-08-23T14:03:41;4.97;;;0.90;;
11004;SDS011;5555;59.622;16.556;2022-08-23T14:06:06;5.23;;;1.23;;
11004;SDS011;5555;59.622;16.556;2022-08-23T14:08:32;7.37;;;1.23;;
11004;SDS011;5555;59.622;16.556;2022-08-23T14:10:57;4.23;;;1.00;;
11004;SDS011;5555;59.622;16.556;2022-08-23T14:13:25;3.73;;;0.90;;
11004;SDS011;5555;59.622;16.556;2022-08-23T14:15:53;6.13;;;1.00;;
11004;SDS011;5555;59.622;16.556;2022-08-23T14:18:21;3.47;;;0.83;;
11004;SDS011;5555;59.622;16.556;2022-08-23T14:20:47;6.70;;;1.20;;
11004;SDS011;5555;59.622;16.556;2022-08-23T14:23:13;4.17;;;0.97;;
11004;SDS011;5555;59.622;16.556;2022-08-23T14:25:38;2.10;;;0.90;;
11004;SDS011;5555;59.622;16.556;2022-08-23T14:28:04;3.63;;;1.10;;
11004;SDS011;5555;59.622;16.556;2022-08-23T14:30:31;3.30;;;0.90;;
11004;SDS011;5555;59.622;16.556;2022-08-23T14:32:59;3.57;;;0.70;;
11004;SDS011;5555;59.622;16.556;2022-08-23T14:35:26;6.23;;;1.13;;
11004;SDS011;5555;59.622;16.556;2022-08-23T14:37:52;4.30;;;0.90;;
11004;SDS011;5555;59.622;16.556;2022-08-23T14:40:18;6.50;;;1.10;;
11004;SDS011;5555;59.622;16.556;2022-08-23T14:42:44;2.67;;;0.80;;
11004;SDS011;5555;59.622;16.556;2022-08-23T14:45:11;4.87;;;1.03;;
11004;SDS011;5555;59.622;16.556;2022-08-23T14:47:37;3.33;;;0.90;;
11004;SDS011;5555;59.622;16.556;2022-08-23T14:50:03;5.83;;;1.23;;
11004;SDS011;5555;59.622;16.556;2022-08-23T14:52:31;4.17;;;1.27;;
11004;SDS011;5555;59.622;16.556;2022-08-23T14:54:59;5.60;;;1.03;;
11004;SDS011;5555;59.622;16.556;2022-08-23T14:57:24;4.20;;;1.00;;
11004;SDS011;5555;59.622;16.556;2022-08-23T14:59:50;4.13;;;0.90;;
11004;SDS011;5555;59.622;16.556;2022-08-23T15:02:18;4.53;;;1.00;;
11004;SDS011;5555;59.622;16.556;2022-08-23T15:04:46;5.50;;;1.73;;
11004;SDS011;5555;59.622;16.556;2022-08-23T15:07:12;2.80;;;0.90;;
11004;SDS011;5555;59.622;16.556;2022-08-23T15:09:38;3.23;;;0.90;;
11004;SDS011;5555;59.622;16.556;2022-08-23T15:12:05;2.50;;;1.00;;
11004;SDS011;5555;59.622;16.556;2022-08-23T15:14:30;1.97;;;0.90;;
11004;SDS011;5555;59.622;16.556;2022-08-23T15:16:56;3.97;;;0.90;;
11004;SDS011;5555;59.622;16.556;2022-08-23T15:19:21;2.10;;;0.93;;
11004;SDS011;5555;59.622;16.556;2022-08-23T15:21:47;2.43;;;1.00;;
11004;SDS011;5555;59.622;16.556;2022-08-23T15:24:13;3.20;;;0.93;;
11004;SDS011;5555;59.622;16.556;2022-08-23T15:26:38;3.53;;;1.10;;
11004;SDS011;5555;59.622;16.556;2022-08-23T15:29:04;4.33;;;0.80;;
11004;SDS011;5555;59.622;16.556;2022-08-23T15:31:30;5.00;;;0.97;;
11004;SDS011;5555;59.622;16.556;2022-08-23T15:33:56;3.50;;;1.00;;
11004;SDS011;5555;59.622;16.556;2022-08-23T15:36:22;6.97;;;0.80;;
11004;SDS011;5555;59.622;16.556;2022-08-23T15:38:48;4.10;;;1.20;;
11004;SDS011;5555;59.622;16.556;2022-08-23T15:41:14;1.97;;;1.03;;
11004;SDS011;5555;59.622;16.556;2022-08-23T15:43:41;2.43;;;0.80;;
11004;SDS011;5555;59.622;16.556;2022-08-23T15:46:10;2.33;;;1.00;;
11004;SDS011;5555;59.622;16.556;2022-08-23T15:48:42;3.33;;;1.00;;
11004;SDS011;5555;59.622;16.556;2022-08-23T15:51:29;1.73;;;0.90;;
11004;SDS011;5555;59.622;16.556;2022-08-23T15:53:55;4.03;;;0.90;;
11004;SDS011;5555;59.622;16.556;2022-08-23T15:56:24;4.83;;;0.87;;
11004;SDS011;5555;59.622;16.556;2022-08-23T15:58:54;2.43;;;1.10;;
11004;SDS011;5555;59.622;16.556;2022-08-23T16:01:20;2.73;;;0.70;;
11004;SDS011;5555;59.622;16.556;2022-08-23T16:03:47;4.67;;;1.20;;
11004;SDS011;5555;59.622;16.556;2022-08-23T16:06:13;2.70;;;1.00;;
11004;SDS011;5555;59.622;16.556;2022-08-23T16:08:40;2.90;;;1.10;;
11004;SDS011;5555;59.622;16.556;2022-08-23T16:11:08;2.47;;;1.03;;
11004;SDS011;5555;59.622;16.556;2022-08-23T16:13:37;2.50;;;0.90;;
11004;SDS011;5555;59.622;16.556;2022-08-23T16:16:28;1.67;;;0.70;;
11004;SDS011;5555;59.622;16.556;2022-08-23T16:18:55;1.90;;;0.70;;
11004;SDS011;5555;59.622;16.556;2022-08-23T16:21:22;4.87;;;1.10;;
11004;SDS011;5555;59.622;16.556;2022-08-23T16:23:51;1.87;;;1.10;;
11004;SDS011;5555;59.622;16.556;2022-08-23T16:26:18;2.00;;;0.80;;
11004;SDS011;5555;59.622;16.556;2022-08-23T16:28:47;1.60;;;0.77;;
11004;SDS011;5555;59.622;16.556;2022-08-23T16:31:15;3.97;;;0.80;;
11004;SDS011;5555;59.622;16.556;2022-08-23T16:33:42;2.30;;;0.90;;
11004;SDS011;5555;59.622;16.556;2022-08-23T16:36:08;5.50;;;1.10;;
11004;SDS011;5555;59.622;16.556;2022-08-23T16:38:35;3.23;;;0.80;;
11004;SDS011;5555;59.622;16.556;2022-08-23T16:41:01;4.00;;;1.10;;
11004;SDS011;5555;59.622;16.556;2022-08-23T16:43:27;2.40;;;1.10;;
11004;SDS011;5555;59.622;16.556;2022-08-23T16:45:53;2.60;;;1.23;;
11004;SDS011;5555;59.622;16.556;2022-08-23T16:48:19;4.30;;;1.43;;
11004;SDS011;5555;59.622;16.556;2022-08-23T16:50:45;2.53;;;1.27;;
11004;SDS011;5555;59.622;16.556;2022-08-23T16:53:12;3.00;;;1.80;;
11004;SDS011;5555;59.622;16.556;2022-08-23T16:55:39;3.07;;;1.73;;
11004;SDS011;5555;59.622;16.556;2022-08-23T16:58:05;2.70;;;1.57;;
11004;SDS011;5555;59.622;16.556;2022-08-23T17:00:32;2.70;;;1.17;;
11004;SDS011;5555;59.622;16.556;2022-08-23T17:02:58;5.33;;;1.40;;
11004;SDS011;5555;59.622;16.556;2022-08-23T17:05:25;3.10;;;1.20;;
11004;SDS011;5555;59.622;16.556;2022-08-23T17:07:51;5.17;;;1.30;;
11004;SDS011;5555;59.622;16.556;2022-08-23T17:10:19;3.37;;;1.10;;